Time;durP1;ratioP1;P1;durP2;ratioP2;P2;SDS_P1;SDS_P2;PMS_P1;PMS_P2;Temp;Humidity;BMP_temperature;BMP_pressure;BME280_temperature;BME280_humidity;BME280_pressure;Samples;Min_cycle;Max_cycle;Signal;HPM_P1;HPM_P2
2022/09/17 18:35:23;;;;;;;9.80;2.28;;;12.00;99.90;;;;;;4873829;29;20064;-64
2022/09/17 18:37:48;;;;;;;10.10;2.20;;;12.10;99.90;;;;;;4887207;29;20060;-64
2022/09/17 18:40:14;;;;;;;7.03;1.70;;;12.10;99.90;;;;;;4878037;29;20096;-64
2022/09/17 18:42:40;;;;;;;9.15;2.08;;;12.10;99.90;;;;;;4885547;29;20410;-64
2022/09/17 18:45:06;;;;;;;8.20;1.75;;;12.20;99.90;;;;;;4895324;29;20048;-64
2022/09/17 18:47:31;;;;;;;6.82;1.67;;;12.20;99.90;;;;;;4896745;29;20036;-64
2022/09/17 18:49:57;;;;;;;8.15;1.92;;;12.20;99.90;;;;;;4895992;29;20458;-64
2022/09/17 18:59:45;;;;;;;10.02;2.20;;;12.00;99.90;;;;;;4895800;29;20472;-64
2022/09/17 19:02:11;;;;;;;5.07;1.70;;;11.90;99.90;;;;;;4896428;29;20048;-64
2022/09/17 19:04:37;;;;;;;9.10;2.20;;;11.90;99.90;;;;;;4894301;29;20036;-64
2022/09/17 19:07:05;;;;;;;5.57;2.00;;;11.90;99.90;;;;;;4863515;29;20472;-63
2022/09/17 19:09:30;;;;;;;7.53;2.47;;;11.80;99.90;;;;;;4861027;29;20045;-62
2022/09/17 19:11:56;;;;;;;9.07;2.28;;;11.80;99.90;;;;;;4878993;29;20370;-63
2022/09/17 19:14:22;;;;;;;7.60;2.00;;;11.70;99.90;;;;;;4896586;29;20473;-63
2022/09/17 19:16:47;;;;;;;7.47;1.70;;;11.70;99.90;;;;;;4896775;29;20064;-63
2022/09/17 19:19:13;;;;;;;7.70;1.75;;;11.70;99.90;;;;;;4886149;29;20055;-62
2022/09/17 19:21:38;;;;;;;6.25;1.70;;;11.70;99.90;;;;;;4896212;29;20407;-63
2022/09/17 19:24:04;;;;;;;6.70;1.63;;;11.60;99.90;;;;;;4881442;29;20054;-63
2022/09/17 19:26:30;;;;;;;5.55;1.92;;;11.60;99.90;;;;;;4879521;29;20036;-63
2022/09/17 19:28:59;;;;;;;6.35;1.60;;;11.60;99.90;;;;;;4895023;29;20036;-62
2022/09/17 19:31:25;;;;;;;6.07;1.48;;;11.60;99.90;;;;;;4884685;29;20344;-62
2022/09/17 19:33:51;;;;;;;7.15;1.52;;;11.50;99.90;;;;;;4889514;29;20419;-62
2022/09/17 19:36:18;;;;;;;9.80;2.55;;;11.50;99.90;;;;;;4887085;29;20204;-63
2022/09/17 19:38:44;;;;;;;7.10;1.80;;;11.50;99.90;;;;;;4892507;29;20052;-62
2022/09/17 19:41:12;;;;;;;7.47;1.73;;;11.60;99.90;;;;;;4894679;29;20412;-62
2022/09/17 19:43:38;;;;;;;5.93;1.23;;;11.60;99.90;;;;;;4893554;29;20045;-62
2022/09/17 19:46:19;;;;;;;7.22;1.75;;;11.60;99.90;;;;;;4896492;29;20410;-63
2022/09/17 19:48:47;;;;;;;5.55;1.20;;;11.50;99.90;;;;;;4893184;29;20045;-62
2022/09/17 19:51:13;;;;;;;5.22;1.48;;;11.50;99.90;;;;;;4896692;29;20071;-62
2022/09/17 19:53:39;;;;;;;4.43;1.50;;;11.50;99.90;;;;;;4897037;29;20055;-63
2022/09/17 19:56:06;;;;;;;8.73;1.48;;;11.40;99.90;;;;;;4895924;29;20065;-63
2022/09/17 19:58:32;;;;;;;7.55;1.65;;;11.40;99.90;;;;;;4891822;29;20111;-62
2022/09/17 20:00:58;;;;;;;6.40;1.83;;;11.30;99.90;;;;;;4887174;29;20210;-62
2022/09/17 20:03:24;;;;;;;8.07;1.30;;;11.30;99.90;;;;;;4884456;29;20112;-62
2022/09/17 20:06:06;;;;;;;4.85;1.50;;;11.30;99.90;;;;;;4884351;29;20387;-63
2022/09/17 20:08:32;;;;;;;4.28;1.05;;;11.30;99.90;;;;;;4882460;29;20056;-62
2022/09/17 20:11:08;;;;;;;8.57;2.00;;;11.30;99.90;;;;;;4884264;29;20033;-62
2022/09/17 20:13:35;;;;;;;7.10;1.33;;;11.20;99.90;;;;;;4885705;29;20041;-62
2022/09/17 20:16:04;;;;;;;5.18;1.30;;;11.20;99.90;;;;;;4883889;29;20113;-62
2022/09/17 20:18:30;;;;;;;7.40;1.50;;;11.20;99.90;;;;;;4882001;29;20056;-62
2022/09/17 20:20:56;;;;;;;4.88;1.30;;;11.20;99.90;;;;;;4882856;29;20418;-62
2022/09/17 20:23:22;;;;;;;6.90;1.50;;;11.20;99.90;;;;;;4888942;29;20136;-63
2022/09/17 20:25:51;;;;;;;8.98;1.95;;;11.20;99.90;;;;;;4882603;29;20120;-63
2022/09/17 20:28:16;;;;;;;4.00;1.40;;;11.10;99.90;;;;;;4897222;29;20059;-62
2022/09/17 20:30:42;;;;;;;8.65;1.45;;;11.10;99.90;;;;;;4899123;29;20493;-62
2022/09/17 20:33:08;;;;;;;8.45;1.92;;;11.10;99.90;;;;;;4898650;29;20094;-63
2022/09/17 20:35:34;;;;;;;7.45;4.07;;;11.10;99.90;;;;;;4896865;29;20057;-62
2022/09/17 20:38:00;;;;;;;7.80;3.40;;;11.10;99.90;;;;;;4880406;29;20131;-62
2022/09/17 20:40:27;;;;;;;9.20;2.90;;;11.10;99.90;;;;;;4896714;29;20120;-63
2022/09/17 20:42:53;;;;;;;9.23;2.00;;;11.00;99.90;;;;;;4896947;29;20104;-63
2022/09/17 20:45:19;;;;;;;8.40;1.77;;;11.00;99.90;;;;;;4895334;29;20476;-63
2022/09/17 20:47:46;;;;;;;7.55;2.28;;;11.00;99.90;;;;;;4895792;29;20036;-62
2022/09/17 20:50:12;;;;;;;8.23;1.88;;;11.00;99.90;;;;;;4898406;29;20317;-62
2022/09/17 20:52:38;;;;;;;4.82;1.38;;;11.00;99.90;;;;;;4897918;29;20575;-63
2022/09/17 20:55:04;;;;;;;5.13;1.40;;;11.00;99.90;;;;;;4898149;29;20043;-63
2022/09/17 20:57:30;;;;;;;8.88;1.50;;;11.00;99.90;;;;;;4885412;29;20426;-63
2022/09/17 20:59:59;;;;;;;6.25;1.45;;;11.00;99.90;;;;;;4892294;29;20048;-62
2022/09/17 21:02:25;;;;;;;7.82;1.85;;;11.00;99.90;;;;;;4893288;29;20055;-63
2022/09/17 21:04:52;;;;;;;10.05;1.40;;;11.00;99.90;;;;;;4893530;29;20151;-63
2022/09/17 21:07:18;;;;;;;6.22;1.42;;;11.00;99.90;;;;;;4897257;29;20041;-63
2022/09/17 21:09:44;;;;;;;8.18;1.52;;;11.00;99.90;;;;;;4880163;29;20058;-63
2022/09/17 21:12:10;;;;;;;9.25;1.70;;;11.00;99.90;;;;;;4897304;29;20044;-64
2022/09/17 21:14:36;;;;;;;8.70;1.98;;;10.90;99.90;;;;;;4897373;29;20072;-63
2022/09/17 21:17:03;;;;;;;6.32;1.70;;;10.90;99.90;;;;;;4887733;29;20431;-63
2022/09/17 21:19:28;;;;;;;8.95;1.92;;;10.90;99.90;;;;;;4881761;29;20033;-64
2022/09/17 21:21:55;;;;;;;6.60;1.50;;;10.90;99.90;;;;;;4881268;29;20067;-63
2022/09/17 21:24:21;;;;;;;9.00;2.05;;;10.90;99.90;;;;;;4883052;29;20044;-62
2022/09/17 21:26:48;;;;;;;9.63;1.77;;;10.90;99.90;;;;;;4894397;29;20040;-63
2022/09/17 21:29:14;;;;;;;7.57;1.40;;;11.00;99.90;;;;;;4898015;29;20044;-63
2022/09/17 21:31:39;;;;;;;5.68;1.30;;;11.00;99.90;;;;;;4897810;29;20047;-63
2022/09/17 21:34:09;;;;;;;6.63;1.83;;;11.00;99.90;;;;;;4892157;29;20539;-63
2022/09/17 21:36:37;;;;;;;8.00;2.28;;;11.00;99.90;;;;;;4881158;29;20049;-63
2022/09/17 21:39:05;;;;;;;8.07;1.60;;;11.10;99.90;;;;;;4894168;29;20347;-63
2022/09/17 21:41:31;;;;;;;6.38;1.65;;;11.10;99.90;;;;;;4893890;29;20518;-63
2022/09/17 21:43:57;;;;;;;8.25;1.60;;;11.10;99.90;;;;;;4880077;29;20052;-62
2022/09/17 21:46:25;;;;;;;8.25;1.88;;;11.10;99.90;;;;;;4896622;29;20104;-62
2022/09/17 21:48:52;;;;;;;6.78;1.23;;;11.10;99.90;;;;;;4876704;29;20757;-61
2022/09/17 21:51:20;;;;;;;7.35;2.17;;;11.20;99.90;;;;;;4896117;29;20446;-62
2022/09/17 21:53:50;;;;;;;6.22;1.20;;;11.20;99.90;;;;;;4889454;29;20040;-61
2022/09/17 21:56:17;;;;;;;7.28;1.85;;;11.20;99.90;;;;;;4890183;29;20059;-62
2022/09/17 21:58:44;;;;;;;8.75;1.65;;;11.20;99.90;;;;;;4892781;29;20108;-61
2022/09/17 22:01:13;;;;;;;10.63;2.00;;;11.20;99.90;;;;;;4895705;29;20155;-61
2022/09/17 22:03:40;;;;;;;10.82;2.10;;;11.20;99.90;;;;;;4892099;29;20045;-62
2022/09/17 22:06:12;;;;;;;10.38;2.60;;;11.20;99.90;;;;;;4893980;29;20058;-63
2022/09/17 22:08:38;;;;;;;9.02;1.67;;;11.20;99.90;;;;;;4877457;29;20047;-61
2022/09/17 22:11:10;;;;;;;6.70;1.90;;;11.20;99.90;;;;;;4894964;29;20659;-61
2022/09/17 22:13:36;;;;;;;8.73;1.70;;;11.20;99.90;;;;;;4895668;29;20053;-61
2022/09/17 22:16:04;;;;;;;9.27;1.75;;;11.20;99.90;;;;;;4893067;29;20056;-61
2022/09/17 22:18:36;;;;;;;7.43;1.92;;;11.20;99.90;;;;;;4877029;29;20048;-64
2022/09/17 22:21:13;;;;;;;7.65;1.70;;;11.30;99.90;;;;;;4877541;29;20395;-62
2022/09/17 22:23:39;;;;;;;6.82;1.60;;;11.30;99.90;;;;;;4887973;29;20032;-62
2022/09/17 22:26:06;;;;;;;7.88;1.70;;;11.30;99.90;;;;;;4885184;29;20476;-62
2022/09/17 22:28:32;;;;;;;8.57;1.80;;;11.30;99.90;;;;;;4879616;29;20541;-62
2022/09/17 22:31:06;;;;;;;6.68;1.88;;;11.40;99.90;;;;;;4896777;29;20175;-61
2022/09/17 22:33:37;;;;;;;9.73;1.70;;;11.40;99.90;;;;;;4896626;29;20091;-61
2022/09/17 22:36:08;;;;;;;12.07;1.88;;;11.50;99.90;;;;;;4896385;29;20136;-62
2022/09/17 22:38:35;;;;;;;7.85;1.83;;;11.50;99.90;;;;;;4878530;29;20064;-62
2022/09/17 22:41:17;;;;;;;11.38;1.80;;;11.50;99.90;;;;;;4860855;29;20124;-62
2022/09/17 22:43:42;;;;;;;8.98;1.95;;;11.50;99.90;;;;;;4886622;29;20055;-62
2022/09/17 22:46:12;;;;;;;8.07;2.13;;;11.50;99.90;;;;;;4877434;29;20052;-62
2022/09/17 22:48:39;;;;;;;11.30;2.20;;;11.60;99.90;;;;;;4860524;29;20057;-62
2022/09/17 22:51:05;;;;;;;9.05;1.83;;;11.60;99.90;;;;;;4877668;29;20049;-62
2022/09/17 22:53:31;;;;;;;8.13;2.00;;;11.60;99.90;;;;;;4879999;29;20148;-62
2022/09/17 22:55:56;;;;;;;10.82;1.90;;;11.70;99.90;;;;;;4877614;29;20124;-62
2022/09/17 22:58:23;;;;;;;11.77;2.05;;;11.60;99.90;;;;;;4876798;29;20464;-61
2022/09/17 23:01:06;;;;;;;13.27;2.42;;;11.70;99.90;;;;;;4860238;29;20036;-62
2022/09/17 23:03:32;;;;;;;7.90;2.00;;;11.70;99.90;;;;;;4889477;29;20123;-61
2022/09/17 23:06:03;;;;;;;13.32;2.38;;;11.70;99.90;;;;;;4861239;29;20415;-61
2022/09/17 23:08:29;;;;;;;12.05;2.28;;;11.70;99.90;;;;;;4860181;29;20037;-61
2022/09/17 23:10:55;;;;;;;9.90;1.88;;;11.70;99.90;;;;;;4883489;29;20043;-62
2022/09/17 23:13:21;;;;;;;10.63;1.90;;;11.70;99.90;;;;;;4885449;29;20060;-62
2022/09/17 23:15:47;;;;;;;7.18;1.88;;;11.80;99.90;;;;;;4893658;29;20553;-61
2022/09/17 23:18:13;;;;;;;14.70;2.25;;;11.80;99.90;;;;;;4895887;29;20036;-62
2022/09/17 23:20:38;;;;;;;10.45;2.15;;;11.80;99.90;;;;;;4896376;29;20323;-61
2022/09/17 23:23:04;;;;;;;12.27;2.88;;;11.80;99.90;;;;;;4898046;29;20068;-62
2022/09/17 23:25:31;;;;;;;13.43;2.67;;;11.80;99.90;;;;;;4898750;29;20036;-61
2022/09/17 23:27:57;;;;;;;12.60;2.40;;;11.80;99.90;;;;;;4880823;29;20028;-61
2022/09/17 23:30:25;;;;;;;14.43;2.65;;;11.80;99.90;;;;;;4892594;29;20673;-61
2022/09/17 23:32:55;;;;;;;11.40;2.47;;;11.80;99.90;;;;;;4888107;29;20052;-62
2022/09/17 23:35:21;;;;;;;10.70;2.00;;;11.70;99.90;;;;;;4882120;29;20037;-61
2022/09/17 23:37:47;;;;;;;9.88;2.45;;;11.70;99.90;;;;;;4899095;29;20056;-62
2022/09/17 23:40:13;;;;;;;12.07;2.45;;;11.70;99.90;;;;;;4898660;29;20044;-62
2022/09/17 23:42:38;;;;;;;13.10;2.55;;;11.70;99.90;;;;;;4899245;29;20080;-62
2022/09/17 23:45:05;;;;;;;14.85;2.63;;;11.70;99.90;;;;;;4898610;29;20045;-61
2022/09/17 23:47:30;;;;;;;12.57;2.78;;;11.60;99.90;;;;;;4898779;29;20048;-62
2022/09/17 23:49:56;;;;;;;8.77;2.20;;;11.60;99.90;;;;;;4899919;29;20438;-62
2022/09/17 23:52:22;;;;;;;7.35;2.25;;;11.60;99.90;;;;;;4899611;29;20040;-62
2022/09/17 23:54:47;;;;;;;15.30;2.53;;;11.60;99.90;;;;;;4898953;29;20472;-61
2022/09/17 23:57:13;;;;;;;12.18;2.03;;;11.50;99.90;;;;;;4895693;29;20037;-62
2022/09/17 23:59:38;;;;;;;9.65;2.20;;;11.50;99.90;;;;;;4880868;29;20044;-61
